createdAt,value
2023-03-29T00:03:50.004Z,2.23
2023-03-29T00:09:10.612Z,2.05
2023-03-29T00:14:31.740Z,2.11
2023-03-29T00:19:52.599Z,2.19
2023-03-29T00:25:14.362Z,2.06
2023-03-29T00:30:35.622Z,1.94
2023-03-29T00:35:56.442Z,1.88
2023-03-29T00:41:17.349Z,1.77
2023-03-29T00:46:38.407Z,1.79
2023-03-29T00:51:59.702Z,1.89
2023-03-29T00:57:22.795Z,1.89
2023-03-29T01:02:51.150Z,1.84
2023-03-29T01:08:19.124Z,1.88
2023-03-29T01:13:52.905Z,1.83
2023-03-29T01:19:18.358Z,1.93
2023-03-29T01:24:53.563Z,1.90
2023-03-29T01:30:30.617Z,1.79
2023-03-29T01:36:05.254Z,1.88
2023-03-29T01:41:39.786Z,1.84
2023-03-29T01:47:10.832Z,1.74
2023-03-29T01:52:38.238Z,1.65
2023-03-29T01:58:01.937Z,1.63
2023-03-29T02:03:26.617Z,1.59
2023-03-29T02:08:51.221Z,1.70
2023-03-29T02:14:13.877Z,1.61
2023-03-29T02:19:34.803Z,1.67
2023-03-29T02:24:59.447Z,1.60
2023-03-29T02:30:21.177Z,1.61
2023-03-29T02:35:54.636Z,1.66
2023-03-29T02:41:17.139Z,1.47
2023-03-29T02:46:38.434Z,1.55
2023-03-29T02:52:07.460Z,1.54
2023-03-29T02:57:29.537Z,1.52
2023-03-29T03:02:51.043Z,1.47
2023-03-29T03:08:12.520Z,1.48
2023-03-29T03:13:33.240Z,1.23
2023-03-29T03:18:55.708Z,1.18
2023-03-29T03:24:17.751Z,1.47
2023-03-29T03:29:38.725Z,1.26
2023-03-29T03:35:05.584Z,0.96
2023-03-29T03:40:28.264Z,0.94
2023-03-29T03:45:49.718Z,0.87
2023-03-29T03:51:14.156Z,0.87
2023-03-29T03:56:35.077Z,1.05
2023-03-29T04:02:05.914Z,1.11
2023-03-29T04:07:29.329Z,1.28
2023-03-29T04:13:17.200Z,1.21
2023-03-29T04:18:56.615Z,1.28
2023-03-29T04:24:18.341Z,1.32
2023-03-29T04:29:57.269Z,1.36
2023-03-29T04:35:33.804Z,1.31
2023-03-29T04:40:55.460Z,1.25
2023-03-29T04:46:44.300Z,1.25
2023-03-29T04:52:17.492Z,1.15
2023-03-29T04:57:38.079Z,1.04
2023-03-29T05:03:07.995Z,0.89
2023-03-29T05:08:40.278Z,0.93
2023-03-29T05:14:08.749Z,1.10
2023-03-29T05:19:29.908Z,1.21
2023-03-29T05:24:52.902Z,1.45
2023-03-29T05:30:15.489Z,1.51
2023-03-29T05:35:46.091Z,1.47
2023-03-29T05:41:07.176Z,1.51
2023-03-29T05:46:47.979Z,1.63
2023-03-29T05:52:11.696Z,1.58
2023-03-29T05:57:35.020Z,1.50
2023-03-29T06:03:06.459Z,2.59
2023-03-29T06:08:33.556Z,2.33
2023-03-29T06:14:03.831Z,2.09
2023-03-29T06:19:25.869Z,1.89
2023-03-29T06:24:49.018Z,1.72
2023-03-29T06:30:19.345Z,1.59
2023-03-29T06:35:47.229Z,1.53
2023-03-29T06:41:11.700Z,1.65
2023-03-29T06:47:10.252Z,1.80
2023-03-29T06:52:30.850Z,1.93
2023-03-29T06:57:52.774Z,1.99
2023-03-29T07:03:20.274Z,2.11
2023-03-29T07:08:45.101Z,2.33
2023-03-29T07:14:33.536Z,2.48
2023-03-29T07:19:55.059Z,2.58
2023-03-29T07:25:38.835Z,2.72
2023-03-29T07:31:06.819Z,2.88
2023-03-29T07:36:34.476Z,2.96
2023-03-29T07:41:57.771Z,3.07
2023-03-29T07:47:19.704Z,3.04
2023-03-29T07:52:41.485Z,3.10
2023-03-29T07:58:04.359Z,3.11
2023-03-29T08:03:27.890Z,2.96
2023-03-29T08:08:48.906Z,2.83
2023-03-29T08:14:11.632Z,2.78
2023-03-29T08:19:56.037Z,2.70
2023-03-29T08:25:18.624Z,2.69
2023-03-29T08:30:43.567Z,2.62
2023-03-29T08:36:04.722Z,2.65
2023-03-29T08:42:11.523Z,2.74
2023-03-29T08:47:47.091Z,2.79
2023-03-29T08:53:35.189Z,2.77
2023-03-29T08:59:19.657Z,2.80
2023-03-29T09:04:42.579Z,2.70
2023-03-29T09:10:47.760Z,2.71
2023-03-29T09:16:45.100Z,2.89
2023-03-29T09:22:32.615Z,2.94
2023-03-29T09:28:18.381Z,2.96
2023-03-29T09:33:59.464Z,2.84
2023-03-29T09:39:32.000Z,2.90
2023-03-29T09:45:08.525Z,3.01
2023-03-29T09:50:38.545Z,3.16
2023-03-29T09:56:02.355Z,3.29
2023-03-29T10:01:38.668Z,3.49
2023-03-29T10:07:01.693Z,3.72
2023-03-29T10:12:23.244Z,3.74
2023-03-29T10:17:46.268Z,3.79
2023-03-29T10:23:09.255Z,3.80
2023-03-29T10:28:32.175Z,3.85
2023-03-29T10:33:56.204Z,3.88
2023-03-29T10:39:17.344Z,3.99
2023-03-29T10:44:38.685Z,4.17
2023-03-29T10:49:59.737Z,4.30
2023-03-29T10:55:25.248Z,4.40
2023-03-29T11:00:55.355Z,4.61
2023-03-29T11:06:28.179Z,4.74
2023-03-29T11:12:15.613Z,4.83
2023-03-29T11:18:09.757Z,4.93
2023-03-29T11:23:48.778Z,5.03
2023-03-29T11:29:40.149Z,5.04
2023-03-29T11:35:19.167Z,5.16
2023-03-29T11:40:43.132Z,5.34
2023-03-29T11:46:14.043Z,5.49
2023-03-29T11:51:41.389Z,5.56
2023-03-29T11:57:07.263Z,5.67
2023-03-29T12:02:37.230Z,5.81
2023-03-29T12:08:09.306Z,5.82
2023-03-29T12:14:05.061Z,5.85
2023-03-29T12:19:40.386Z,5.96
2023-03-29T12:25:06.453Z,5.95
2023-03-29T12:30:45.262Z,5.99
2023-03-29T12:36:32.654Z,6.07
2023-03-29T12:42:22.187Z,6.15
2023-03-29T12:48:02.424Z,6.27
2023-03-29T12:53:26.996Z,6.30
2023-03-29T12:59:16.899Z,6.41
2023-03-29T13:04:50.233Z,6.58
2023-03-29T13:10:31.411Z,6.74
2023-03-29T13:15:52.356Z,6.91
2023-03-29T13:21:28.582Z,7.07
2023-03-29T13:26:57.559Z,7.37
2023-03-29T13:32:27.920Z,7.71
2023-03-29T13:38:00.210Z,7.87
2023-03-29T13:43:30.993Z,7.98
2023-03-29T13:49:01.733Z,8.06
2023-03-29T13:54:41.779Z,8.35
2023-03-29T14:00:18.144Z,8.30
2023-03-29T14:05:41.915Z,8.29
2023-03-29T14:11:05.511Z,8.16
2023-03-29T14:16:32.893Z,8.10
2023-03-29T14:21:53.486Z,8.10
2023-03-29T14:27:16.120Z,8.12
2023-03-29T14:32:39.320Z,8.19
2023-03-29T14:38:01.653Z,8.22
2023-03-29T14:43:24.207Z,8.30
2023-03-29T14:48:45.585Z,8.36
2023-03-29T14:54:07.555Z,8.42
2023-03-29T14:59:36.845Z,8.51
2023-03-29T15:05:08.562Z,8.59
2023-03-29T15:10:33.383Z,8.62
2023-03-29T15:16:00.834Z,8.66
2023-03-29T15:21:22.758Z,8.65
2023-03-29T15:26:43.626Z,8.70
2023-03-29T15:32:04.404Z,8.73
2023-03-29T15:37:25.448Z,8.78
2023-03-29T15:42:46.622Z,8.79
2023-03-29T15:48:19.881Z,8.74
2023-03-29T15:53:41.222Z,8.73
2023-03-29T15:59:02.177Z,8.77
2023-03-29T16:04:23.005Z,8.81
2023-03-29T16:09:45.257Z,8.94
2023-03-29T16:15:15.939Z,8.88
2023-03-29T16:20:38.321Z,8.93
2023-03-29T16:25:59.557Z,8.97
2023-03-29T16:31:23.608Z,8.90
2023-03-29T16:36:45.095Z,8.88
2023-03-29T16:42:06.278Z,8.94
2023-03-29T16:47:27.515Z,8.96
2023-03-29T16:52:51.507Z,9.03
2023-03-29T16:58:12.495Z,9.17
2023-03-29T17:03:33.138Z,9.20
2023-03-29T17:08:53.959Z,9.36
2023-03-29T17:14:15.404Z,9.24
2023-03-29T17:19:36.170Z,9.33
2023-03-29T17:24:57.166Z,9.48
2023-03-29T17:30:18.315Z,9.57
2023-03-29T17:35:41.761Z,9.52
2023-03-29T17:41:04.503Z,9.41
2023-03-29T17:46:25.997Z,9.29
2023-03-29T17:51:46.988Z,9.12
2023-03-29T17:57:07.796Z,9.05
2023-03-29T18:02:28.496Z,9.04
2023-03-29T18:07:49.758Z,8.87
2023-03-29T18:13:13.938Z,8.80
2023-03-29T18:18:34.918Z,8.84
2023-03-29T18:23:57.023Z,8.93
2023-03-29T18:29:18.211Z,8.96
2023-03-29T18:34:39.483Z,8.75
2023-03-29T18:40:00.382Z,8.68
2023-03-29T18:45:22.302Z,8.76
2023-03-29T18:50:47.003Z,8.74
2023-03-29T18:56:08.205Z,8.60
2023-03-29T19:01:28.882Z,8.49
2023-03-29T19:06:49.557Z,8.48
2023-03-29T19:12:10.597Z,8.43
2023-03-29T19:17:32.213Z,8.46
2023-03-29T19:22:53.548Z,8.20
2023-03-29T19:28:14.537Z,8.15
2023-03-29T19:33:35.193Z,8.08
2023-03-29T19:38:56.161Z,8.25
2023-03-29T19:44:17.458Z,8.24
2023-03-29T19:49:38.723Z,8.08
2023-03-29T19:54:59.819Z,8.00
2023-03-29T20:00:24.458Z,8.08
2023-03-29T20:05:46.862Z,8.21
2023-03-29T20:11:10.367Z,8.23
2023-03-29T20:16:34.380Z,8.27
2023-03-29T20:21:57.792Z,8.21
2023-03-29T20:27:18.666Z,8.13
2023-03-29T20:32:39.765Z,8.02
2023-03-29T20:38:00.727Z,7.94
2023-03-29T20:43:21.525Z,7.84
2023-03-29T20:48:54.420Z,7.82
2023-03-29T20:54:15.386Z,7.80
2023-03-29T20:59:38.028Z,7.80
2023-03-29T21:05:00.297Z,7.69
2023-03-29T21:10:23.741Z,7.67
2023-03-29T21:15:46.490Z,7.62
2023-03-29T21:21:11.777Z,7.63
2023-03-29T21:26:32.868Z,7.55
2023-03-29T21:31:53.797Z,7.60
2023-03-29T21:37:15.349Z,7.59
2023-03-29T21:42:36.276Z,7.54
2023-03-29T21:47:57.363Z,7.52
2023-03-29T21:53:18.533Z,7.44
2023-03-29T21:58:39.355Z,7.35
2023-03-29T22:04:00.287Z,7.47
2023-03-29T22:09:21.296Z,7.67
2023-03-29T22:14:42.094Z,7.71
2023-03-29T22:20:13.778Z,7.68
2023-03-29T22:25:37.199Z,7.55
2023-03-29T22:31:02.188Z,7.32
2023-03-29T22:36:26.353Z,7.21
2023-03-29T22:41:47.278Z,7.12
2023-03-29T22:47:08.414Z,7.14
2023-03-29T22:52:29.310Z,7.06
2023-03-29T22:57:49.945Z,6.88
2023-03-29T23:03:10.622Z,6.96
2023-03-29T23:08:33.262Z,6.89
2023-03-29T23:13:54.260Z,6.81
2023-03-29T23:19:15.023Z,6.83
2023-03-29T23:24:35.614Z,6.75
2023-03-29T23:29:56.404Z,6.75
2023-03-29T23:35:17.072Z,6.76
2023-03-29T23:40:37.799Z,6.66
2023-03-29T23:46:01.143Z,6.59
2023-03-29T23:51:28.833Z,6.65
2023-03-29T23:56:49.848Z,6.82
